createdAt,value
2022-07-25T00:00:06.477Z,27.60
2022-07-25T00:01:08.366Z,27.60
2022-07-25T00:02:12.193Z,27.60
2022-07-25T00:03:15.359Z,27.60
2022-07-25T00:04:20.360Z,27.60
2022-07-25T00:05:22.407Z,27.60
2022-07-25T00:06:24.097Z,27.60
2022-07-25T00:07:25.730Z,27.60
2022-07-25T00:08:28.592Z,27.60
2022-07-25T00:09:31.269Z,27.50
2022-07-25T00:10:32.991Z,27.60
2022-07-25T00:11:34.690Z,27.50
2022-07-25T00:12:36.416Z,27.50
2022-07-25T00:13:38.191Z,27.50
2022-07-25T00:14:40.897Z,27.50
2022-07-25T00:15:42.658Z,27.50
2022-07-25T00:16:44.382Z,27.50
2022-07-25T00:17:46.277Z,27.50
2022-07-25T00:18:47.949Z,27.40
2022-07-25T00:19:49.664Z,27.40
2022-07-25T00:20:51.407Z,27.40
2022-07-25T00:21:53.390Z,27.40
2022-07-25T00:22:55.125Z,27.40
2022-07-25T00:23:57.375Z,27.40
2022-07-25T00:24:59.375Z,27.40
2022-07-25T00:26:03.420Z,27.30
2022-07-25T00:27:05.156Z,27.30
2022-07-25T00:28:06.981Z,27.40
2022-07-25T00:29:08.699Z,27.30
2022-07-25T00:30:11.081Z,27.20
2022-07-25T00:31:12.881Z,27.20
2022-07-25T00:32:14.836Z,27.20
2022-07-25T00:33:16.570Z,27.20
2022-07-25T00:34:18.284Z,27.20
2022-07-25T00:35:20.049Z,27.10
2022-07-25T00:36:21.769Z,27.10
2022-07-25T00:37:23.422Z,27.10
2022-07-25T00:38:25.094Z,27.10
2022-07-25T00:39:26.932Z,27.00
2022-07-25T00:40:29.568Z,27.00
2022-07-25T00:41:31.596Z,27.00
2022-07-25T00:42:33.496Z,26.90
2022-07-25T00:43:35.149Z,26.90
2022-07-25T00:44:36.840Z,26.90
2022-07-25T00:45:38.648Z,26.90
2022-07-25T00:46:40.445Z,26.90
2022-07-25T00:47:43.179Z,26.90
2022-07-25T00:48:45.284Z,26.90
2022-07-25T00:49:47.037Z,26.90
2022-07-25T00:50:48.770Z,26.90
2022-07-25T00:51:51.624Z,26.90
2022-07-25T00:52:53.307Z,26.90
2022-07-25T00:53:56.139Z,26.90
2022-07-25T00:54:57.889Z,26.90
2022-07-25T00:55:59.768Z,26.90
2022-07-25T00:57:01.505Z,26.90
2022-07-25T00:58:04.367Z,26.90
2022-07-25T00:59:06.232Z,26.90
2022-07-25T01:00:12.416Z,26.90
2022-07-25T01:01:14.174Z,26.80
2022-07-25T01:02:15.946Z,26.80
2022-07-25T01:03:17.721Z,26.80
2022-07-25T01:04:19.870Z,26.70
2022-07-25T01:05:21.615Z,26.80
2022-07-25T01:06:24.886Z,26.80
2022-07-25T01:07:26.981Z,26.70
2022-07-25T01:08:29.320Z,26.70
2022-07-25T01:09:31.351Z,26.70
2022-07-25T01:10:33.656Z,26.70
2022-07-25T01:11:35.375Z,26.80
2022-07-25T01:12:52.661Z,26.70
2022-07-25T01:13:54.520Z,26.60
2022-07-25T01:14:57.682Z,26.60
2022-07-25T01:15:59.555Z,26.60
2022-07-25T01:17:01.299Z,26.50
2022-07-25T01:18:03.357Z,26.50
2022-07-25T01:19:05.226Z,26.40
2022-07-25T01:20:23.570Z,26.40
2022-07-25T01:21:26.437Z,26.40
2022-07-25T01:22:28.121Z,26.40
2022-07-25T01:23:29.923Z,26.40
2022-07-25T01:24:31.629Z,26.40
2022-07-25T01:25:33.364Z,26.30
2022-07-25T01:26:35.258Z,26.30
2022-07-25T01:27:37.076Z,26.30
2022-07-25T01:28:38.904Z,26.30
2022-07-25T01:29:40.751Z,26.20
2022-07-25T01:30:42.856Z,26.20
2022-07-25T01:31:44.608Z,26.20
2022-07-25T01:32:46.802Z,26.20
2022-07-25T01:33:48.532Z,26.20
2022-07-25T01:34:50.259Z,26.20
2022-07-25T01:35:52.556Z,26.20
2022-07-25T01:36:54.244Z,26.10
2022-07-25T01:37:55.985Z,26.10
2022-07-25T01:38:57.861Z,26.20
2022-07-25T01:41:22.405Z,26.10
2022-07-25T01:42:26.606Z,26.10
2022-07-25T01:43:28.511Z,26.10
2022-07-25T01:44:30.234Z,26.10
2022-07-25T01:45:32.147Z,26.00
2022-07-25T01:46:34.353Z,26.10
2022-07-25T01:47:36.494Z,26.00
2022-07-25T01:48:38.300Z,26.00
2022-07-25T01:49:40.632Z,26.00
2022-07-25T01:50:42.436Z,26.00
2022-07-25T01:51:44.095Z,26.00
2022-07-25T01:52:45.996Z,26.00
2022-07-25T01:53:48.165Z,26.00
2022-07-25T01:54:50.034Z,26.00
2022-07-25T01:55:52.155Z,26.00
2022-07-25T01:56:53.919Z,25.90
2022-07-25T01:57:55.859Z,26.00
2022-07-25T01:58:58.084Z,26.00
2022-07-25T02:00:02.154Z,25.90
2022-07-25T02:01:04.695Z,25.90
2022-07-25T02:02:10.730Z,25.90
2022-07-25T02:03:30.924Z,25.90
2022-07-25T02:04:34.961Z,25.90
2022-07-25T02:05:36.754Z,26.00
2022-07-25T02:06:41.393Z,25.90
2022-07-25T02:07:44.596Z,25.80
2022-07-25T02:08:46.308Z,25.80
2022-07-25T02:09:49.343Z,25.80
2022-07-25T02:10:52.971Z,25.80
2022-07-25T02:11:54.922Z,25.70
2022-07-25T02:12:57.192Z,25.70
2022-07-25T02:13:59.109Z,25.70
2022-07-25T02:15:00.979Z,25.70
2022-07-25T02:16:03.788Z,25.70
2022-07-25T02:17:05.561Z,25.70
2022-07-25T02:18:07.252Z,25.80
2022-07-25T02:19:10.337Z,25.60
2022-07-25T02:20:15.519Z,25.70
2022-07-25T02:21:17.250Z,25.70
2022-07-25T02:22:18.910Z,25.70
2022-07-25T02:23:20.559Z,25.70
2022-07-25T02:24:22.467Z,25.60
2022-07-25T02:25:24.115Z,25.60
2022-07-25T02:26:25.817Z,25.60
2022-07-25T02:27:28.704Z,25.60
2022-07-25T02:28:30.495Z,25.60
2022-07-25T02:29:32.423Z,25.60
2022-07-25T02:30:34.636Z,25.60
2022-07-25T02:31:37.372Z,25.60
2022-07-25T02:32:40.446Z,25.60
2022-07-25T02:33:43.374Z,25.60
2022-07-25T02:34:45.064Z,25.60
2022-07-25T02:35:46.723Z,25.60
2022-07-25T02:36:49.855Z,25.50
2022-07-25T02:37:51.572Z,25.50
2022-07-25T02:38:55.451Z,25.40
2022-07-25T02:40:00.071Z,25.40
2022-07-25T02:41:02.101Z,25.40
2022-07-25T02:42:03.820Z,25.40
2022-07-25T02:43:05.534Z,25.40
2022-07-25T02:44:07.973Z,25.40
2022-07-25T02:45:10.152Z,25.40
2022-07-25T02:46:13.049Z,25.40
2022-07-25T02:47:25.439Z,25.30
2022-07-25T02:48:28.613Z,25.40
2022-07-25T02:49:31.204Z,25.40
2022-07-25T02:50:34.400Z,25.30
2022-07-25T02:51:37.142Z,25.30
2022-07-25T02:52:39.182Z,25.30
2022-07-25T02:53:56.624Z,25.30
2022-07-25T02:55:02.214Z,25.20
2022-07-25T02:56:08.368Z,25.20
2022-07-25T02:57:10.155Z,25.20
2022-07-25T02:58:11.916Z,25.20
2022-07-25T02:59:13.630Z,25.20
2022-07-25T03:00:16.474Z,25.30
2022-07-25T03:01:18.230Z,25.30
2022-07-25T03:02:21.266Z,25.30
2022-07-25T03:03:22.951Z,25.30
2022-07-25T03:04:25.061Z,25.30
2022-07-25T03:05:26.945Z,25.30
2022-07-25T03:06:29.713Z,25.30
2022-07-25T03:07:31.711Z,25.20
2022-07-25T03:08:33.457Z,25.30
2022-07-25T03:09:35.270Z,25.20
2022-07-25T03:10:36.966Z,25.20
2022-07-25T03:11:40.256Z,25.10
2022-07-25T03:12:44.992Z,25.10
2022-07-25T03:13:46.704Z,25.10
2022-07-25T03:14:48.648Z,25.00
2022-07-25T03:15:51.392Z,25.00
2022-07-25T03:16:53.725Z,25.00
2022-07-25T03:17:55.630Z,24.90
2022-07-25T03:18:57.360Z,24.90
2022-07-25T03:19:59.221Z,24.90
2022-07-25T03:21:01.033Z,24.90
2022-07-25T03:22:02.804Z,24.90
2022-07-25T03:23:04.587Z,24.90
2022-07-25T03:24:07.161Z,24.90
2022-07-25T03:25:16.022Z,24.90
2022-07-25T03:26:23.609Z,24.90
2022-07-25T03:27:27.869Z,24.90
2022-07-25T03:28:29.649Z,24.90
2022-07-25T03:29:31.479Z,24.90
2022-07-25T03:30:33.145Z,24.90
2022-07-25T03:31:35.292Z,24.90
2022-07-25T03:32:40.107Z,24.90
2022-07-25T03:33:41.795Z,24.90
2022-07-25T03:34:44.195Z,24.90
2022-07-25T03:35:45.968Z,24.90
2022-07-25T03:36:47.802Z,24.90
2022-07-25T03:37:49.523Z,24.80
2022-07-25T03:38:51.396Z,24.80
2022-07-25T03:39:53.271Z,24.80
2022-07-25T03:40:54.984Z,24.80
2022-07-25T03:41:59.043Z,24.70
2022-07-25T03:43:00.704Z,24.70
2022-07-25T03:44:03.661Z,24.70
2022-07-25T03:45:06.548Z,24.60
2022-07-25T03:46:08.380Z,24.60
2022-07-25T03:47:11.378Z,24.60
2022-07-25T03:48:22.562Z,24.60
2022-07-25T03:49:24.535Z,24.60
2022-07-25T03:50:26.506Z,24.60
2022-07-25T03:51:28.687Z,24.60
2022-07-25T03:52:31.439Z,24.60
2022-07-25T03:53:34.473Z,24.60
2022-07-25T03:54:36.166Z,24.60
2022-07-25T03:55:39.622Z,24.60
2022-07-25T03:56:47.295Z,24.50
2022-07-25T03:57:49.365Z,24.60
2022-07-25T03:58:51.009Z,24.50
2022-07-25T03:59:54.024Z,24.60
2022-07-25T04:00:56.368Z,24.60
2022-07-25T04:02:00.408Z,24.60
2022-07-25T04:03:02.165Z,24.60
2022-07-25T04:04:05.271Z,24.70
2022-07-25T04:05:08.864Z,24.70
2022-07-25T04:06:10.523Z,24.70
2022-07-25T04:07:12.276Z,24.70
2022-07-25T04:08:15.370Z,24.80
2022-07-25T04:09:17.262Z,24.80
2022-07-25T04:10:18.955Z,24.90
2022-07-25T04:11:22.105Z,24.80
2022-07-25T04:12:24.961Z,24.80
2022-07-25T04:13:27.195Z,24.80
2022-07-25T04:14:28.920Z,24.80
2022-07-25T04:15:30.573Z,24.70
2022-07-25T04:16:33.017Z,24.70
2022-07-25T04:17:39.542Z,24.80
2022-07-25T04:18:41.894Z,24.60
2022-07-25T04:19:45.479Z,24.80
2022-07-25T04:20:47.134Z,24.60
2022-07-25T04:21:49.792Z,24.70
2022-07-25T04:22:51.811Z,24.60
2022-07-25T04:23:54.099Z,24.60
2022-07-25T04:24:57.428Z,24.60
2022-07-25T04:25:59.734Z,24.60
2022-07-25T04:27:02.629Z,24.60
2022-07-25T04:28:04.538Z,24.60
2022-07-25T04:29:06.289Z,24.60
2022-07-25T04:30:08.998Z,24.60
2022-07-25T04:31:10.669Z,24.60
2022-07-25T04:32:13.762Z,24.60
2022-07-25T04:33:15.605Z,24.80
2022-07-25T04:34:17.308Z,24.60
2022-07-25T04:35:19.213Z,24.70
2022-07-25T04:36:20.955Z,24.70
2022-07-25T04:37:22.619Z,24.70
2022-07-25T04:38:24.333Z,24.70
2022-07-25T04:39:27.002Z,24.70
2022-07-25T04:40:28.707Z,24.70
2022-07-25T04:41:32.114Z,24.70
2022-07-25T04:42:33.754Z,24.60
2022-07-25T04:43:35.433Z,24.80
2022-07-25T04:44:37.612Z,24.60
2022-07-25T04:45:39.391Z,24.60
2022-07-25T04:46:41.453Z,24.80
2022-07-25T04:47:44.510Z,24.60
2022-07-25T04:48:46.557Z,24.60
2022-07-25T04:49:49.819Z,24.70
2022-07-25T04:50:52.554Z,24.60
2022-07-25T04:51:54.338Z,24.60
2022-07-25T04:52:56.185Z,24.60
2022-07-25T04:53:57.887Z,24.60
2022-07-25T04:54:59.961Z,24.60
2022-07-25T04:56:02.019Z,24.60
2022-07-25T04:57:06.448Z,24.60
2022-07-25T04:58:08.128Z,24.60
2022-07-25T04:59:09.928Z,24.60
2022-07-25T05:00:12.795Z,24.70
2022-07-25T05:01:14.532Z,24.70
2022-07-25T05:02:16.404Z,24.70
2022-07-25T05:03:18.154Z,24.70
2022-07-25T05:04:20.017Z,24.70
2022-07-25T05:05:22.362Z,24.70
2022-07-25T05:06:25.418Z,24.70
2022-07-25T05:07:27.139Z,24.80
2022-07-25T05:08:29.421Z,24.80
2022-07-25T05:09:31.034Z,24.80
2022-07-25T05:10:32.663Z,24.90
2022-07-25T05:11:34.261Z,24.90
2022-07-25T05:12:36.741Z,25.00
2022-07-25T05:13:38.411Z,25.10
2022-07-25T05:14:40.055Z,25.00
2022-07-25T05:15:44.080Z,25.10
2022-07-25T05:16:45.906Z,25.20
2022-07-25T05:17:48.452Z,25.10
2022-07-25T05:18:51.478Z,25.20
2022-07-25T05:19:53.140Z,25.20
2022-07-25T05:20:54.936Z,25.20
2022-07-25T05:21:57.210Z,25.20
2022-07-25T05:23:03.357Z,25.40
2022-07-25T05:24:05.987Z,25.30
2022-07-25T05:25:10.645Z,25.30
2022-07-25T05:26:13.767Z,25.40
2022-07-25T05:27:15.464Z,25.40
2022-07-25T05:28:18.404Z,25.50
2022-07-25T05:29:20.077Z,25.50
2022-07-25T05:30:21.851Z,25.70
2022-07-25T05:31:23.635Z,25.70
2022-07-25T05:32:25.333Z,25.60
2022-07-25T05:33:27.108Z,25.60
2022-07-25T05:34:28.990Z,25.70
2022-07-25T05:35:30.647Z,25.80
2022-07-25T05:36:32.490Z,25.80
2022-07-25T05:37:35.490Z,25.90
2022-07-25T05:38:37.328Z,25.90
2022-07-25T05:39:46.183Z,26.00
2022-07-25T05:40:47.943Z,26.10
2022-07-25T05:41:49.650Z,26.10
2022-07-25T05:42:51.275Z,26.20
2022-07-25T05:43:53.058Z,26.20
2022-07-25T05:44:54.837Z,26.20
2022-07-25T05:46:04.269Z,26.30
2022-07-25T05:47:12.656Z,26.30
2022-07-25T05:48:14.991Z,26.40
2022-07-25T05:49:16.943Z,26.40
2022-07-25T05:50:18.648Z,26.50
2022-07-25T05:51:20.363Z,26.60
2022-07-25T05:52:22.662Z,26.60
2022-07-25T05:53:24.554Z,26.70
2022-07-25T05:54:26.227Z,26.70
2022-07-25T05:55:29.320Z,26.80
2022-07-25T05:56:31.022Z,26.90
2022-07-25T05:57:32.764Z,27.00
2022-07-25T05:58:34.537Z,27.10
2022-07-25T05:59:36.218Z,27.10
2022-07-25T06:00:39.166Z,27.20
2022-07-25T06:01:40.901Z,27.30
2022-07-25T06:02:42.776Z,27.40
2022-07-25T06:03:44.547Z,27.40
2022-07-25T06:04:46.402Z,27.40
2022-07-25T06:05:50.520Z,27.50
2022-07-25T06:06:52.285Z,27.60
2022-07-25T06:07:54.265Z,27.70
2022-07-25T06:08:55.984Z,27.70
2022-07-25T06:09:59.402Z,27.80
2022-07-25T06:11:01.271Z,27.80
2022-07-25T06:12:03.944Z,27.90
2022-07-25T06:13:06.741Z,28.00
2022-07-25T06:14:09.939Z,28.10
2022-07-25T06:15:14.484Z,28.20
2022-07-25T06:16:25.113Z,28.30
2022-07-25T06:17:32.222Z,28.40
2022-07-25T06:18:34.391Z,28.50
2022-07-25T06:19:36.244Z,28.60
2022-07-25T06:20:38.750Z,28.60
2022-07-25T06:21:40.650Z,28.70
2022-07-25T06:22:42.630Z,28.80
2022-07-25T06:23:45.401Z,28.80
2022-07-25T06:24:47.095Z,28.90
2022-07-25T06:25:50.459Z,28.90
2022-07-25T06:26:52.437Z,29.00
2022-07-25T06:27:54.150Z,28.90
2022-07-25T06:28:55.955Z,28.90
2022-07-25T06:29:57.990Z,28.90
2022-07-25T06:30:59.903Z,28.90
2022-07-25T06:32:01.833Z,28.90
2022-07-25T06:33:03.931Z,28.90
2022-07-25T06:34:06.094Z,28.90
2022-07-25T06:35:09.650Z,28.90
2022-07-25T06:36:11.568Z,28.90
2022-07-25T06:37:17.893Z,28.90
2022-07-25T06:38:19.789Z,28.80
2022-07-25T06:39:54.963Z,28.80
2022-07-25T06:40:56.713Z,28.80
2022-07-25T06:41:59.743Z,28.80
2022-07-25T06:43:05.512Z,28.80
2022-07-25T06:44:07.862Z,28.80
2022-07-25T06:45:11.261Z,28.80
2022-07-25T06:46:12.992Z,28.80
2022-07-25T06:47:14.716Z,28.80
2022-07-25T06:48:17.111Z,28.80
2022-07-25T06:49:18.831Z,28.80
2022-07-25T06:50:21.346Z,28.90
2022-07-25T06:51:24.004Z,28.80
2022-07-25T08:37:15.707Z,28.60
2022-07-25T08:38:20.439Z,28.80
2022-07-25T08:39:22.109Z,28.90
2022-07-25T08:40:26.253Z,29.00
2022-07-25T08:41:28.297Z,29.10
2022-07-25T08:42:30.893Z,29.20
2022-07-25T08:43:37.666Z,29.40
2022-07-25T08:44:43.941Z,29.50
2022-07-25T08:45:47.870Z,29.60
2022-07-25T08:46:50.269Z,29.80
2022-07-25T08:47:54.511Z,29.90
2022-07-25T08:48:56.853Z,30.00
2022-07-25T08:50:04.039Z,30.20
2022-07-25T08:51:07.941Z,30.40
2022-07-25T08:52:10.003Z,30.40
2022-07-25T08:54:35.542Z,30.70
2022-07-25T08:55:37.325Z,30.80
2022-07-25T08:56:39.106Z,30.90
2022-07-25T08:57:43.844Z,31.00
2022-07-25T08:58:45.661Z,31.10
2022-07-25T08:59:47.351Z,31.10
2022-07-25T09:00:49.512Z,31.20
2022-07-25T09:01:51.273Z,31.30
2022-07-25T09:03:00.498Z,31.30
2022-07-25T09:04:06.564Z,31.40
2022-07-25T09:05:09.122Z,31.50
2022-07-25T09:06:22.098Z,31.50
2022-07-25T09:07:41.267Z,31.60
2022-07-25T09:08:57.582Z,31.70
2022-07-25T09:10:00.680Z,31.70
2022-07-25T09:11:03.499Z,31.70
2022-07-25T09:12:06.735Z,31.80
2022-07-25T09:13:14.197Z,31.80
2022-07-25T09:14:16.011Z,31.80
2022-07-25T09:15:38.977Z,31.90
2022-07-25T09:16:44.431Z,32.00
2022-07-25T09:17:51.098Z,32.00
2022-07-25T09:18:55.351Z,32.00
2022-07-25T09:19:57.886Z,32.00
2022-07-25T09:21:00.803Z,32.00
2022-07-25T09:22:10.220Z,32.00
2022-07-25T09:23:33.626Z,32.10
2022-07-25T09:24:44.551Z,32.10
2022-07-25T09:25:47.354Z,32.10
2022-07-25T09:26:57.222Z,32.20
2022-07-25T09:28:16.419Z,32.20
2022-07-25T09:29:20.877Z,32.20
2022-07-25T09:30:22.606Z,32.30
2022-07-25T09:31:32.806Z,32.30
2022-07-25T09:32:35.964Z,32.30
2022-07-25T09:33:52.291Z,32.30
2022-07-25T09:34:53.992Z,32.40
2022-07-25T09:35:56.767Z,32.40
2022-07-25T09:36:58.604Z,32.40
2022-07-25T09:38:15.446Z,32.50
2022-07-25T09:39:17.199Z,32.50
2022-07-25T09:40:19.872Z,32.60
2022-07-25T09:41:22.425Z,32.60
2022-07-25T09:42:28.545Z,32.60
2022-07-25T09:43:44.042Z,32.70
2022-07-25T09:44:59.524Z,32.70
2022-07-25T09:46:04.450Z,32.70
2022-07-25T09:47:14.510Z,32.80
2022-07-25T09:48:19.313Z,32.70
2022-07-25T09:49:21.166Z,32.70
2022-07-25T09:50:24.976Z,32.80
2022-07-25T09:51:30.609Z,32.80
2022-07-25T09:52:34.042Z,32.80
2022-07-25T09:53:37.010Z,32.90
2022-07-25T09:54:39.440Z,32.90
2022-07-25T09:55:41.416Z,32.90
2022-07-25T09:56:43.441Z,33.00
2022-07-25T09:57:45.135Z,33.00
2022-07-25T09:58:47.068Z,33.00
2022-07-25T09:59:48.835Z,33.00
2022-07-25T10:00:52.550Z,33.00
2022-07-25T10:02:07.614Z,33.00
2022-07-25T10:03:20.925Z,33.10
2022-07-25T10:04:30.828Z,33.10
2022-07-25T10:05:44.800Z,33.20
2022-07-25T10:07:07.616Z,33.20
2022-07-25T10:08:11.872Z,33.20
2022-07-25T10:09:14.428Z,33.20
2022-07-25T10:10:22.142Z,33.20
2022-07-25T10:11:25.631Z,33.30
2022-07-25T10:12:27.332Z,33.30
2022-07-25T10:13:32.461Z,33.40
2022-07-25T10:14:35.204Z,33.40
2022-07-25T10:15:45.782Z,33.40
2022-07-25T10:16:48.523Z,33.40
2022-07-25T10:18:01.600Z,33.40
2022-07-25T10:19:03.779Z,33.50
2022-07-25T10:20:07.844Z,33.50
2022-07-25T10:21:28.764Z,33.50
2022-07-25T10:22:58.600Z,33.50
2022-07-25T10:24:06.811Z,33.60
2022-07-25T10:25:17.415Z,33.60
2022-07-25T10:26:19.621Z,33.60
2022-07-25T10:27:23.412Z,33.60
2022-07-25T10:28:40.033Z,33.60
2022-07-25T10:29:42.413Z,33.60
2022-07-25T10:30:44.322Z,33.60
2022-07-25T10:31:51.082Z,33.70
2022-07-25T10:33:01.137Z,33.70
2022-07-25T10:34:05.664Z,33.70
2022-07-25T10:35:16.822Z,33.70
2022-07-25T10:36:20.103Z,33.70
2022-07-25T10:37:28.261Z,33.70
2022-07-25T10:38:31.045Z,33.80
2022-07-25T10:39:49.754Z,33.80
2022-07-25T10:40:51.694Z,33.80
2022-07-25T10:41:55.770Z,33.80
2022-07-25T10:43:21.194Z,33.80
2022-07-25T10:44:23.065Z,33.80
2022-07-25T10:45:27.363Z,33.80
2022-07-25T10:46:30.996Z,33.80
2022-07-25T10:47:38.423Z,33.80
2022-07-25T10:48:40.430Z,33.90
2022-07-25T10:50:14.577Z,33.90
2022-07-25T10:51:12.124Z,33.90
2022-07-25T10:52:18.954Z,33.90
2022-07-25T10:53:38.369Z,34.00
2022-07-25T10:54:40.257Z,34.00
2022-07-25T10:55:41.978Z,34.00
2022-07-25T10:56:52.857Z,34.00
2022-07-25T10:58:17.027Z,34.10
2022-07-25T10:59:29.806Z,34.10
2022-07-25T11:00:42.449Z,34.10
2022-07-25T11:01:44.892Z,34.10
2022-07-25T11:02:50.434Z,34.10
2022-07-25T11:03:55.153Z,34.10
2022-07-25T11:05:02.058Z,34.20
2022-07-25T11:06:03.837Z,34.20
2022-07-25T11:07:17.722Z,34.20
2022-07-25T11:08:29.850Z,34.20
2022-07-25T11:09:31.504Z,34.20
2022-07-25T11:10:33.281Z,34.30
2022-07-25T11:11:35.249Z,34.40
2022-07-25T11:12:37.435Z,34.40
2022-07-25T11:13:43.373Z,34.40
2022-07-25T11:14:45.053Z,34.40
2022-07-25T11:15:47.105Z,34.50
2022-07-25T11:16:50.994Z,34.50
2022-07-25T11:17:53.910Z,34.50
2022-07-25T11:18:55.557Z,34.60
2022-07-25T11:20:09.016Z,34.60
2022-07-25T11:21:10.801Z,34.60
2022-07-25T11:22:12.673Z,34.60
2022-07-25T11:23:21.697Z,34.70
2022-07-25T11:24:35.694Z,34.70
2022-07-25T11:25:37.672Z,34.70
2022-07-25T11:26:51.598Z,34.80
2022-07-25T11:28:00.952Z,34.80
2022-07-25T11:29:02.735Z,34.80
2022-07-25T11:30:15.997Z,34.80
2022-07-25T11:31:18.752Z,34.80
2022-07-25T11:32:20.688Z,34.70
2022-07-25T11:33:22.466Z,34.70
2022-07-25T11:34:27.174Z,34.70
2022-07-25T11:35:31.423Z,34.80
2022-07-25T11:36:33.132Z,34.80
2022-07-25T11:37:38.510Z,34.80
2022-07-25T11:38:42.057Z,34.80
2022-07-25T11:39:47.422Z,34.80
2022-07-25T11:40:49.099Z,34.70
2022-07-25T11:42:01.789Z,34.70
2022-07-25T11:43:04.956Z,34.70
2022-07-25T11:44:07.970Z,34.60
2022-07-25T11:45:24.275Z,34.60
2022-07-25T11:46:27.570Z,34.50
2022-07-25T11:47:31.740Z,34.50
2022-07-25T11:48:39.704Z,34.60
2022-07-25T11:49:50.525Z,34.50
2022-07-25T11:50:52.205Z,34.60
2022-07-25T11:51:54.029Z,34.60
2022-07-25T11:53:04.101Z,34.60
2022-07-25T11:54:10.983Z,34.60
2022-07-25T11:55:16.976Z,34.70
2022-07-25T11:57:46.276Z,34.70
2022-07-25T11:58:58.998Z,34.80
2022-07-25T12:00:05.130Z,34.90
2022-07-25T12:01:15.334Z,34.90
2022-07-25T12:02:31.663Z,35.00
2022-07-25T12:03:38.595Z,35.00
2022-07-25T12:04:40.441Z,35.00
2022-07-25T12:05:42.302Z,35.00
2022-07-25T12:06:47.967Z,35.00
2022-07-25T12:07:51.840Z,35.00
2022-07-25T12:08:53.564Z,35.00
2022-07-25T12:09:57.233Z,34.90
2022-07-25T12:10:58.951Z,35.00
2022-07-25T12:12:06.076Z,34.90
2022-07-25T12:13:10.077Z,34.90
2022-07-25T12:14:13.116Z,34.80
2022-07-25T12:15:16.595Z,34.80
2022-07-25T12:16:18.427Z,34.90
2022-07-25T12:17:20.125Z,35.00
2022-07-25T12:18:21.809Z,35.00
2022-07-25T12:19:23.615Z,35.00
2022-07-25T12:20:27.978Z,35.00
2022-07-25T12:21:30.341Z,35.00
2022-07-25T12:22:32.281Z,35.00
2022-07-25T12:23:34.878Z,35.00
2022-07-25T12:24:37.005Z,35.00
2022-07-25T12:25:41.360Z,35.00
2022-07-25T12:26:44.314Z,34.90
2022-07-25T12:27:46.539Z,34.90
2022-07-25T12:28:48.306Z,35.00
2022-07-25T12:29:50.276Z,34.90
2022-07-25T12:30:56.547Z,34.80
2022-07-25T12:32:00.006Z,34.80
2022-07-25T12:33:01.984Z,34.80
2022-07-25T12:34:03.961Z,34.80
2022-07-25T12:35:07.739Z,34.80
2022-07-25T12:36:12.951Z,34.80
2022-07-25T12:37:14.741Z,34.90
2022-07-25T12:38:16.568Z,35.00
2022-07-25T12:39:18.321Z,35.00
2022-07-25T12:40:20.711Z,35.00
2022-07-25T12:41:23.604Z,35.10
2022-07-25T12:42:26.273Z,35.20
2022-07-25T12:43:27.905Z,35.20
2022-07-25T12:44:29.641Z,35.30
2022-07-25T12:45:31.390Z,35.30
2022-07-25T12:46:33.123Z,35.30
2022-07-25T12:47:35.443Z,35.30
2022-07-25T12:48:38.431Z,35.20
2022-07-25T12:49:40.985Z,35.20
2022-07-25T12:50:44.294Z,35.20
2022-07-25T12:51:45.962Z,35.10
2022-07-25T12:52:47.929Z,35.00
2022-07-25T12:53:50.094Z,35.00
2022-07-25T12:54:51.822Z,34.90
2022-07-25T12:55:53.509Z,34.90
2022-07-25T12:56:55.397Z,34.90
2022-07-25T12:57:57.104Z,34.80
2022-07-25T12:58:58.799Z,34.80
2022-07-25T13:00:00.493Z,34.80
2022-07-25T13:01:03.478Z,34.80
2022-07-25T13:02:05.768Z,34.80
2022-07-25T13:03:07.554Z,34.80
2022-07-25T13:04:09.384Z,34.80
2022-07-25T13:05:11.545Z,34.80
2022-07-25T13:06:13.331Z,34.80
2022-07-25T13:07:16.067Z,34.90
2022-07-25T13:08:18.293Z,34.90
2022-07-25T13:09:20.058Z,34.90
2022-07-25T13:10:21.849Z,34.90
2022-07-25T13:11:23.586Z,35.00
2022-07-25T13:12:25.280Z,35.00
2022-07-25T13:13:27.064Z,35.20
2022-07-25T13:14:28.861Z,35.30
2022-07-25T13:15:30.657Z,35.50
2022-07-25T13:16:34.081Z,35.60
2022-07-25T13:17:35.894Z,35.70
2022-07-25T13:18:37.559Z,35.90
2022-07-25T13:19:39.262Z,36.00
2022-07-25T13:20:41.256Z,36.20
2022-07-25T13:21:43.885Z,36.30
2022-07-25T13:22:46.037Z,36.20
2022-07-25T13:23:47.718Z,36.20
2022-07-25T13:24:49.512Z,36.20
2022-07-25T13:25:51.905Z,36.10
2022-07-25T13:26:53.617Z,36.10
2022-07-25T13:27:55.314Z,36.00
2022-07-25T13:29:00.046Z,35.90
2022-07-25T13:30:01.911Z,35.90
2022-07-25T13:31:06.904Z,35.90
2022-07-25T13:32:08.822Z,35.90
2022-07-25T13:33:10.611Z,35.80
2022-07-25T13:34:12.367Z,35.80
2022-07-25T13:35:19.090Z,35.70
2022-07-25T13:36:22.190Z,35.70
2022-07-25T13:37:24.141Z,35.70
2022-07-25T13:38:26.367Z,35.70
2022-07-25T13:39:28.086Z,35.70
2022-07-25T13:40:29.884Z,35.70
2022-07-25T13:41:32.112Z,35.70
2022-07-25T13:42:33.825Z,35.80
2022-07-25T13:43:35.826Z,35.90
2022-07-25T13:44:37.483Z,36.00
2022-07-25T13:45:40.876Z,36.00
2022-07-25T13:46:46.095Z,36.00
2022-07-25T13:47:56.315Z,36.00
2022-07-25T13:49:08.580Z,36.00
2022-07-25T13:50:10.565Z,35.90
2022-07-25T13:51:12.356Z,35.90
2022-07-25T13:52:14.303Z,35.90
2022-07-25T13:53:16.177Z,35.80
2022-07-25T13:54:18.070Z,35.80
2022-07-25T13:55:20.889Z,35.70
2022-07-25T13:56:23.316Z,35.60
2022-07-25T13:57:24.996Z,35.70
2022-07-25T13:58:27.436Z,35.60
2022-07-25T13:59:29.269Z,35.60
2022-07-25T14:00:30.939Z,35.50
2022-07-25T14:01:32.701Z,35.50
2022-07-25T14:02:34.737Z,35.40
2022-07-25T14:03:39.481Z,35.40
2022-07-25T14:04:41.189Z,35.30
2022-07-25T14:05:42.950Z,35.20
2022-07-25T14:06:44.907Z,35.20
2022-07-25T14:07:46.921Z,35.20
2022-07-25T14:08:49.703Z,35.10
2022-07-25T14:09:51.473Z,35.10
2022-07-25T14:10:53.223Z,35.10
2022-07-25T14:11:54.927Z,35.10
2022-07-25T14:12:56.601Z,35.00
2022-07-25T14:13:58.499Z,35.00
2022-07-25T14:15:00.320Z,35.00
2022-07-25T14:16:02.557Z,35.00
2022-07-25T14:17:04.320Z,35.00
2022-07-25T14:18:06.150Z,35.00
2022-07-25T14:19:10.325Z,35.00
2022-07-25T14:20:12.845Z,35.00
2022-07-25T14:21:14.515Z,35.00
2022-07-25T14:22:17.229Z,35.10
2022-07-25T14:23:18.896Z,35.20
2022-07-25T14:24:20.912Z,35.40
2022-07-25T14:25:22.837Z,35.30
2022-07-25T14:26:25.747Z,35.40
2022-07-25T14:27:27.416Z,35.50
2022-07-25T14:28:29.740Z,35.50
2022-07-25T14:29:31.534Z,35.50
2022-07-25T14:30:33.459Z,35.50
2022-07-25T14:31:35.212Z,35.60
2022-07-25T14:32:36.998Z,35.60
2022-07-25T14:33:40.133Z,35.60
2022-07-25T14:34:41.895Z,35.60
2022-07-25T14:35:43.602Z,35.60
2022-07-25T14:37:35.838Z,35.60
2022-07-25T14:38:37.553Z,35.50
2022-07-25T14:39:39.553Z,35.50
2022-07-25T14:40:41.496Z,35.50
2022-07-25T14:41:43.218Z,35.40
2022-07-25T14:42:45.142Z,35.30
2022-07-25T14:43:46.858Z,35.40
2022-07-25T14:44:48.581Z,35.30
2022-07-25T14:45:50.290Z,35.30
2022-07-25T14:46:52.159Z,35.30
2022-07-25T14:47:53.965Z,35.40
2022-07-25T14:48:55.749Z,35.40
2022-07-25T14:49:57.434Z,35.30
2022-07-25T14:50:59.088Z,35.30
2022-07-25T14:52:01.006Z,35.30
2022-07-25T14:53:02.707Z,35.30
2022-07-25T14:54:04.460Z,35.30
2022-07-25T14:55:06.827Z,35.30
2022-07-25T14:56:08.565Z,35.30
2022-07-25T14:57:10.674Z,35.30
2022-07-25T14:58:13.819Z,35.30
2022-07-25T14:59:15.591Z,35.40
2022-07-25T15:00:17.485Z,35.30
2022-07-25T15:01:20.899Z,35.30
2022-07-25T15:02:23.759Z,35.30
2022-07-25T15:03:25.549Z,35.30
2022-07-25T15:04:27.430Z,35.30
2022-07-25T15:05:29.313Z,35.30
2022-07-25T15:06:31.573Z,35.30
2022-07-25T15:07:33.246Z,35.30
2022-07-25T15:08:35.304Z,35.20
2022-07-25T15:09:37.764Z,35.20
2022-07-25T15:10:39.567Z,35.20
2022-07-25T15:11:41.230Z,35.20
2022-07-25T15:12:42.901Z,35.20
2022-07-25T15:13:44.604Z,35.20
2022-07-25T15:14:46.719Z,35.10
2022-07-25T15:15:48.541Z,35.10
2022-07-25T15:16:50.267Z,35.10
2022-07-25T15:17:52.117Z,35.20
2022-07-25T15:19:24.568Z,35.20
2022-07-25T15:20:15.854Z,35.10
2022-07-25T15:21:17.554Z,35.10
2022-07-25T15:22:19.221Z,35.00
2022-07-25T15:23:23.189Z,34.90
2022-07-25T15:24:29.033Z,34.90
2022-07-25T15:26:52.946Z,34.90
2022-07-25T15:27:54.779Z,35.00
2022-07-25T15:28:56.488Z,35.00
2022-07-25T15:29:58.248Z,35.20